createdAt,value
2022-09-23T00:06:48.408Z,8.05
2022-09-23T00:09:49.882Z,6.82
2022-09-23T00:15:57.328Z,11.00
2022-09-23T00:21:47.096Z,7.65
2022-09-23T00:27:45.041Z,6.15
2022-09-23T00:32:59.111Z,5.78
2022-09-23T00:39:17.594Z,6.68
2022-09-23T00:45:22.728Z,6.70
2022-09-23T00:51:40.298Z,6.65
2022-09-23T00:57:39.478Z,7.78
2022-09-23T01:00:28.281Z,6.85
2022-09-23T01:13:39.427Z,8.60
2022-09-23T01:22:59.665Z,7.90
2022-09-23T01:33:51.900Z,12.90
2022-09-23T01:37:00.271Z,7.75
2022-09-23T01:43:06.136Z,9.35
2022-09-23T02:02:52.425Z,7.40
2022-09-23T02:09:18.407Z,8.88
2022-09-23T02:18:29.621Z,7.68
2022-09-23T02:25:25.873Z,9.05
2022-09-23T02:35:44.589Z,7.68
2022-09-23T02:38:55.308Z,6.95
2022-09-23T02:42:10.477Z,10.02
2022-09-23T02:45:18.693Z,6.85
2022-09-23T02:58:02.034Z,7.13
2022-09-23T03:01:36.790Z,6.95
2022-09-23T03:08:22.040Z,7.05
2022-09-23T03:11:32.188Z,5.78
2022-09-23T03:17:43.758Z,6.13
2022-09-23T03:24:21.706Z,8.30
2022-09-23T03:30:44.969Z,10.02
2022-09-23T03:33:35.865Z,7.53
2022-09-23T03:39:42.717Z,6.88
2022-09-23T03:45:47.170Z,6.78
2022-09-23T03:57:41.327Z,9.02
2022-09-23T04:00:42.556Z,6.75
2022-09-23T04:09:29.328Z,9.40
2022-09-23T04:12:07.600Z,8.32
2022-09-23T04:14:57.151Z,6.22
2022-09-23T04:23:20.421Z,8.63
2022-09-23T04:26:10.258Z,10.95
2022-09-23T04:31:41.814Z,10.30
2022-09-23T04:34:44.862Z,7.80
2022-09-23T04:37:20.621Z,7.37
2022-09-23T04:39:51.550Z,7.90
2022-09-23T04:42:55.358Z,7.25
2022-09-23T04:45:54.277Z,7.03
2022-09-23T04:48:30.260Z,10.13
2022-09-23T04:54:25.639Z,7.47
2022-09-23T04:57:12.889Z,8.63
2022-09-23T05:05:11.287Z,8.18
2022-09-23T05:08:02.292Z,8.95
2022-09-23T05:18:58.532Z,13.55
2022-09-23T05:25:00.633Z,11.40
2022-09-23T05:27:28.144Z,11.13
2022-09-23T05:30:03.144Z,9.95
2022-09-23T05:32:44.896Z,9.88
2022-09-23T05:35:26.078Z,8.30
2022-09-23T05:38:11.032Z,13.05
2022-09-23T05:41:41.219Z,10.32
2022-09-23T05:44:24.509Z,9.25
2022-09-23T05:50:29.289Z,11.77
2022-09-23T05:56:15.070Z,11.38
2022-09-23T06:05:52.510Z,16.92
2022-09-23T06:12:11.148Z,10.68
2022-09-23T06:15:31.179Z,11.80
2022-09-23T06:21:19.628Z,9.57
2022-09-23T06:23:57.329Z,10.15
2022-09-23T06:35:23.767Z,13.75
2022-09-23T06:38:22.214Z,18.80
2022-09-23T06:41:12.996Z,21.80
2022-09-23T06:44:28.052Z,22.08
2022-09-23T06:50:58.117Z,24.05
2022-09-23T06:56:50.545Z,26.35
2022-09-23T07:06:54.441Z,23.73
2022-09-23T07:12:41.291Z,23.60
2022-09-23T07:21:41.278Z,24.23
2022-09-23T07:24:15.822Z,22.63
2022-09-23T07:34:32.078Z,24.10
2022-09-23T07:39:33.002Z,21.35
2022-09-23T07:42:01.892Z,20.30
2022-09-23T07:44:29.478Z,24.15
2022-09-23T07:46:56.454Z,26.58
2022-09-23T07:49:23.062Z,22.35
2022-09-23T07:51:49.801Z,21.58
2022-09-23T07:54:17.408Z,20.00
2022-09-23T07:56:44.559Z,20.60
2022-09-23T07:59:15.264Z,23.30
2022-09-23T08:01:44.132Z,17.98
2022-09-23T08:04:20.714Z,19.67
2022-09-23T08:06:53.988Z,19.77
2022-09-23T08:09:23.739Z,16.40
2022-09-23T08:11:50.997Z,16.52
2022-09-23T08:14:18.603Z,18.27
2022-09-23T08:16:47.024Z,18.50
2022-09-23T08:19:14.059Z,15.65
2022-09-23T08:21:42.334Z,15.98
2022-09-23T08:24:14.348Z,15.57
2022-09-23T08:26:41.013Z,15.23
2022-09-23T08:29:30.888Z,16.73
2022-09-23T08:32:01.057Z,17.20
2022-09-23T08:34:46.208Z,15.63
2022-09-23T08:40:25.984Z,12.38
2022-09-23T08:43:52.521Z,16.00
2022-09-23T08:54:07.726Z,14.90
2022-09-23T08:59:49.243Z,16.15
2022-09-23T09:02:20.382Z,13.90
2022-09-23T09:04:59.184Z,11.32
2022-09-23T09:07:39.159Z,13.57
2022-09-23T09:10:06.674Z,14.82
2022-09-23T09:13:03.066Z,16.60
2022-09-23T09:15:29.878Z,16.00
2022-09-23T09:18:08.386Z,15.07
2022-09-23T09:20:57.306Z,14.75
2022-09-23T09:23:36.381Z,12.40
2022-09-23T09:26:03.604Z,14.82
2022-09-23T09:28:39.358Z,17.65
2022-09-23T09:31:15.099Z,14.15
2022-09-23T09:33:52.483Z,16.88
2022-09-23T09:36:39.879Z,16.05
2022-09-23T09:39:12.170Z,15.43
2022-09-23T09:41:44.824Z,19.15
2022-09-23T09:44:26.868Z,15.98
2022-09-23T09:47:08.961Z,12.73
2022-09-23T09:49:50.945Z,13.10
2022-09-23T09:52:29.593Z,16.42
2022-09-23T09:55:28.029Z,12.43
2022-09-23T09:58:06.118Z,14.98
2022-09-23T10:00:42.975Z,16.10
2022-09-23T10:03:27.024Z,12.68
2022-09-23T10:05:54.503Z,12.95
2022-09-23T10:08:26.636Z,16.60
2022-09-23T10:13:27.619Z,13.90
2022-09-23T10:15:55.351Z,13.55
2022-09-23T10:18:36.035Z,16.98
2022-09-23T10:21:08.076Z,14.80
2022-09-23T10:27:16.174Z,11.63
2022-09-23T10:40:03.274Z,18.55
2022-09-23T10:50:08.098Z,13.02
2022-09-23T10:53:19.757Z,12.77
2022-09-23T10:57:02.534Z,12.30
2022-09-23T11:00:16.617Z,12.63
2022-09-23T11:03:43.339Z,11.82
2022-09-23T11:10:14.576Z,10.77
2022-09-23T11:16:46.545Z,11.45
2022-09-23T11:34:26.435Z,14.75
2022-09-23T11:41:05.487Z,10.75
2022-09-23T11:54:10.143Z,9.88
2022-09-23T12:00:51.501Z,9.88
2022-09-23T12:04:14.171Z,8.68
2022-09-23T12:11:12.573Z,9.48
2022-09-23T12:20:42.798Z,7.20
2022-09-23T12:23:18.745Z,9.73
2022-09-23T12:26:02.142Z,13.23
2022-09-23T12:34:53.638Z,9.05
2022-09-23T12:43:50.118Z,11.45
2022-09-23T12:50:09.773Z,9.73
2022-09-23T12:53:01.596Z,8.40
2022-09-23T12:56:10.467Z,7.47
2022-09-23T12:59:30.477Z,9.27
2022-09-23T13:02:18.905Z,8.88
2022-09-23T13:11:41.403Z,13.13
2022-09-23T13:17:38.427Z,8.35
2022-09-23T13:20:21.068Z,6.95
2022-09-23T13:36:09.531Z,7.28
2022-09-23T13:38:41.377Z,9.77
2022-09-23T13:41:36.586Z,10.38
2022-09-23T13:44:11.572Z,8.55
2022-09-23T13:46:53.563Z,11.18
2022-09-23T13:53:14.057Z,13.68
2022-09-23T13:56:26.701Z,12.70
2022-09-23T14:02:50.651Z,11.40
2022-09-23T14:06:00.938Z,8.55
2022-09-23T14:11:55.482Z,12.13
2022-09-23T14:15:14.155Z,12.02
2022-09-23T14:17:50.398Z,10.95
2022-09-23T14:20:52.943Z,7.57
2022-09-23T14:23:21.927Z,10.85
2022-09-23T14:25:52.465Z,11.00
2022-09-23T14:28:40.623Z,11.02
2022-09-23T14:31:12.126Z,8.55
2022-09-23T14:33:41.747Z,9.23
2022-09-23T14:36:56.445Z,15.00
2022-09-23T14:39:29.466Z,12.15
2022-09-23T14:45:05.880Z,11.23
2022-09-23T14:48:09.028Z,14.10
2022-09-23T14:50:59.934Z,12.43
2022-09-23T14:53:54.929Z,14.50
2022-09-23T14:56:44.506Z,13.30
2022-09-23T14:59:52.950Z,14.00
2022-09-23T15:03:04.830Z,16.88
2022-09-23T15:05:46.198Z,14.90
2022-09-23T15:08:20.199Z,15.13
2022-09-23T15:10:48.178Z,17.15
2022-09-23T15:13:19.617Z,16.08
2022-09-23T15:15:46.469Z,17.30
2022-09-23T15:18:23.323Z,15.18
2022-09-23T15:21:10.469Z,18.05
2022-09-23T15:23:48.674Z,19.52
2022-09-23T15:26:18.040Z,13.68
2022-09-23T15:28:45.582Z,13.95
2022-09-23T15:31:20.702Z,16.45
2022-09-23T15:33:48.920Z,15.25
2022-09-23T15:36:21.258Z,17.27
2022-09-23T15:38:48.199Z,18.75
2022-09-23T15:41:15.736Z,16.45
2022-09-23T15:43:42.493Z,16.92
2022-09-23T15:46:20.639Z,12.70
2022-09-23T15:48:58.606Z,12.13
2022-09-23T15:51:27.565Z,13.27
2022-09-23T15:53:58.486Z,15.55
2022-09-23T15:56:26.988Z,17.90
2022-09-23T15:58:53.691Z,16.40
2022-09-23T16:01:34.788Z,14.45
2022-09-23T16:04:04.404Z,15.90
2022-09-23T16:06:31.991Z,14.10
2022-09-23T16:08:59.984Z,18.00
2022-09-23T16:11:31.992Z,16.10
2022-09-23T16:16:36.503Z,14.90
2022-09-23T16:19:03.332Z,17.20
2022-09-23T16:21:30.073Z,13.70
2022-09-23T16:23:59.291Z,16.85
2022-09-23T16:26:28.455Z,16.33
2022-09-23T16:28:57.567Z,17.98
2022-09-23T16:31:25.553Z,14.27
2022-09-23T16:33:53.607Z,13.70
2022-09-23T16:36:27.771Z,16.30
2022-09-23T16:38:56.659Z,16.65
2022-09-23T16:41:31.523Z,15.77
2022-09-23T16:44:00.466Z,16.25
2022-09-23T16:46:29.426Z,17.92
2022-09-23T16:48:57.799Z,18.42
2022-09-23T16:51:29.848Z,17.90
2022-09-23T16:56:28.951Z,15.98
2022-09-23T16:58:56.429Z,21.02
2022-09-23T17:01:47.373Z,19.83
2022-09-23T17:04:17.450Z,19.85
2022-09-23T17:06:50.386Z,17.98
2022-09-23T17:09:20.778Z,18.77
2022-09-23T17:12:26.789Z,16.17
2022-09-23T17:15:13.446Z,20.42
2022-09-23T17:17:40.729Z,23.85
2022-09-23T17:20:09.351Z,22.35
2022-09-23T17:22:38.160Z,23.15
2022-09-23T17:25:09.488Z,19.70
2022-09-23T17:27:38.479Z,20.30
2022-09-23T17:30:06.856Z,26.48
2022-09-23T17:32:35.073Z,22.02
2022-09-23T17:35:04.762Z,24.42
2022-09-23T17:37:32.849Z,22.70
2022-09-23T17:40:05.510Z,31.05
2022-09-23T17:42:33.261Z,28.55
2022-09-23T17:45:01.664Z,21.55
2022-09-23T17:47:28.370Z,25.65
2022-09-23T17:49:58.103Z,31.63
2022-09-23T17:52:27.171Z,30.38
2022-09-23T17:54:57.705Z,26.20
2022-09-23T17:57:24.378Z,23.90
2022-09-23T17:59:53.708Z,23.63
2022-09-23T18:02:24.017Z,28.02
2022-09-23T18:05:04.164Z,24.08
2022-09-23T18:07:30.774Z,26.35
2022-09-23T18:09:57.989Z,27.00
2022-09-23T18:12:26.117Z,27.63
2022-09-23T18:14:53.210Z,22.70
2022-09-23T18:17:24.254Z,27.95
2022-09-23T18:20:01.308Z,30.50
2022-09-23T18:22:28.720Z,30.98
2022-09-23T18:24:59.839Z,28.70
2022-09-23T18:27:27.012Z,28.15
2022-09-23T18:29:56.464Z,23.80
2022-09-23T18:32:25.388Z,25.38
2022-09-23T18:34:52.360Z,27.33
2022-09-23T18:37:26.360Z,24.67
2022-09-23T18:39:53.328Z,24.98
2022-09-23T18:42:20.481Z,28.90
2022-09-23T18:44:50.455Z,27.30
2022-09-23T18:47:50.115Z,27.90
2022-09-23T18:50:37.132Z,29.90
2022-09-23T18:53:09.242Z,33.22
2022-09-23T18:58:10.105Z,31.00
2022-09-23T19:00:40.070Z,24.73
2022-09-23T19:03:08.413Z,31.33
2022-09-23T19:05:39.859Z,32.13
2022-09-23T19:08:06.545Z,35.05
2022-09-23T19:10:33.479Z,29.92
2022-09-23T19:13:01.939Z,28.65
2022-09-23T19:15:29.703Z,27.85
2022-09-23T19:17:59.514Z,27.40
2022-09-23T19:20:27.393Z,33.97
2022-09-23T19:22:54.462Z,34.03
2022-09-23T19:25:26.941Z,27.80
2022-09-23T19:27:53.786Z,28.02
2022-09-23T19:30:23.197Z,26.50
2022-09-23T19:32:50.276Z,29.30
2022-09-23T19:35:17.212Z,26.63
2022-09-23T19:37:46.199Z,34.05
2022-09-23T19:40:15.072Z,31.73
2022-09-23T19:42:47.984Z,30.35
2022-09-23T19:45:17.249Z,28.75
2022-09-23T19:47:53.321Z,30.25
2022-09-23T19:50:23.372Z,33.42
2022-09-23T19:52:55.315Z,26.95
2022-09-23T19:55:22.015Z,31.02
2022-09-23T19:57:48.900Z,31.88
2022-09-23T20:00:18.609Z,38.80
2022-09-23T20:02:47.794Z,28.77
2022-09-23T20:05:19.658Z,33.53
2022-09-23T20:07:47.316Z,28.45
2022-09-23T20:10:14.745Z,30.77
2022-09-23T20:15:34.967Z,31.55
2022-09-23T20:18:06.099Z,36.28
2022-09-23T20:20:33.043Z,32.00
2022-09-23T20:22:59.646Z,30.95
2022-09-23T20:25:26.316Z,28.90
2022-09-23T20:27:53.648Z,28.25
2022-09-23T20:30:20.940Z,32.45
2022-09-23T20:32:49.100Z,31.67
2022-09-23T20:35:17.863Z,32.67
2022-09-23T20:37:44.736Z,33.50
2022-09-23T20:40:15.050Z,34.58
2022-09-23T20:42:41.644Z,30.45
2022-09-23T20:45:09.700Z,36.55
2022-09-23T20:47:37.471Z,30.23
2022-09-23T20:50:04.771Z,28.67
2022-09-23T20:52:33.368Z,31.15
2022-09-23T20:55:02.343Z,28.75
2022-09-23T20:57:29.886Z,31.48
2022-09-23T20:59:56.578Z,33.78
2022-09-23T21:02:25.318Z,32.22
2022-09-23T21:04:52.892Z,35.05
2022-09-23T21:07:19.562Z,28.77
2022-09-23T21:09:46.173Z,26.85
2022-09-23T21:12:14.329Z,30.60
2022-09-23T21:14:41.383Z,31.35
2022-09-23T21:20:16.982Z,31.85
2022-09-23T21:25:29.017Z,32.92
2022-09-23T21:28:07.033Z,28.92
2022-09-23T21:30:33.921Z,31.40
2022-09-23T21:33:01.993Z,30.15
2022-09-23T21:35:42.909Z,30.13
2022-09-23T21:38:09.635Z,29.35
2022-09-23T21:40:55.086Z,29.55
2022-09-23T21:43:23.459Z,30.40
2022-09-23T21:45:56.918Z,29.55
2022-09-23T21:48:24.271Z,31.58
2022-09-23T21:50:55.561Z,29.38
2022-09-23T21:53:23.644Z,32.73
2022-09-23T21:55:50.923Z,33.13
2022-09-23T21:58:17.720Z,34.10
2022-09-23T22:00:44.606Z,31.85
2022-09-23T22:03:12.096Z,36.50
2022-09-23T22:05:41.805Z,29.95
2022-09-23T22:08:09.905Z,30.67
2022-09-23T22:10:37.446Z,32.30
2022-09-23T22:13:09.214Z,31.73
2022-09-23T22:15:38.741Z,33.10
2022-09-23T22:18:05.941Z,34.20
2022-09-23T22:20:34.049Z,35.63
2022-09-23T22:23:01.864Z,36.42
2022-09-23T22:25:28.876Z,35.35
2022-09-23T22:28:14.159Z,35.90
2022-09-23T22:31:00.892Z,32.97
2022-09-23T22:33:27.660Z,37.30
2022-09-23T22:36:02.082Z,34.28
2022-09-23T22:38:29.651Z,34.38
2022-09-23T22:40:56.593Z,36.38
2022-09-23T22:43:23.257Z,38.47
2022-09-23T22:45:51.046Z,35.53
2022-09-23T22:48:19.550Z,35.22
2022-09-23T22:50:46.497Z,36.50
2022-09-23T22:53:13.817Z,38.45
2022-09-23T22:55:42.040Z,33.60
2022-09-23T22:58:30.748Z,36.95
2022-09-23T23:00:57.158Z,39.17
2022-09-23T23:03:26.359Z,38.25
2022-09-23T23:05:57.582Z,37.15
2022-09-23T23:08:24.786Z,42.33
2022-09-23T23:10:51.578Z,44.05
2022-09-23T23:13:18.170Z,37.50
2022-09-23T23:15:44.890Z,43.13
2022-09-23T23:18:12.128Z,40.50
2022-09-23T23:20:38.860Z,39.53
2022-09-23T23:23:05.778Z,38.55
2022-09-23T23:25:32.505Z,39.92
2022-09-23T23:27:59.308Z,40.03
2022-09-23T23:30:26.011Z,38.33
2022-09-23T23:32:52.809Z,40.88
2022-09-23T23:35:19.922Z,36.65
2022-09-23T23:37:46.571Z,38.03
2022-09-23T23:40:13.201Z,32.50
2022-09-23T23:42:39.993Z,38.13
2022-09-23T23:45:07.291Z,38.60
2022-09-23T23:47:33.909Z,40.40
2022-09-23T23:50:00.696Z,35.25
2022-09-23T23:52:27.323Z,36.72
2022-09-23T23:54:54.062Z,37.53
2022-09-23T23:57:20.683Z,35.80
2022-09-23T23:59:47.337Z,31.58
